This is the latest recevied weather packets stored in our database for station/object DL4NBA-1. If no packets are shown the sender has not sent any weather packets the latest 1 day(s).
| Time | Temp. | Humidity | Pressure | Rain* | Wind** | Luminosity | Snow |
|---|---|---|---|---|---|---|---|
| 1778005358 | 12.78° C | - | - | 0 mm | 2.24 m/s, 294° | - | - |
| 1778005059 | 12.78° C | - | - | 0 mm | 2.24 m/s, 229° | - | - |
| 1778004462 | 12.78° C | - | - | 0 mm | 2.68 m/s, 252° | - | - |
| 1778004159 | 12.78° C | - | - | 0 mm | 2.68 m/s, 276° | - | - |
| 1778003861 | 12.78° C | - | - | 0 mm | 3.13 m/s, 250° | - | - |
| 1778003562 | 12.78° C | - | - | 0 mm | 2.68 m/s, 269° | - | - |
| 1778002964 | 12.78° C | - | - | 0 mm | 2.68 m/s, 274° | - | - |
| 1778002064 | 13.33° C | - | - | 0 mm | 2.24 m/s, 252° | - | - |
| 1778001766 | 13.33° C | - | - | 0 mm | 1.79 m/s, 253° | - | - |
| 1778001467 | 13.33° C | - | - | 0 mm | 2.24 m/s, 232° | - | - |
| 1778000568 | 13.89° C | - | - | 0 mm | 2.68 m/s, 263° | - | - |
| 1778000269 | 13.89° C | - | - | 0 mm | 2.68 m/s, 312° | - | - |
| 1777999669 | 13.89° C | - | - | 0 mm | 2.24 m/s, 249° | - | - |
| 1777999370 | 13.89° C | - | - | 0 mm | 1.79 m/s, 250° | - | - |
| 1777999072 | 13.89° C | - | - | 0 mm | 2.24 m/s, 270° | - | - |
| 1777998773 | 13.89° C | - | - | 0 mm | 2.68 m/s, 277° | - | - |
| 1777998474 | 13.89° C | - | - | 0 mm | 2.24 m/s, 256° | - | - |
| 1777997277 | 14.44° C | - | - | 0 mm | 0.45 m/s, 158° | - | - |
| 1777996978 | 15° C | - | - | 0 mm | 1.34 m/s, 224° | - | - |
| 1777996676 | 13.89° C | - | - | 0 mm | 1.34 m/s, 219° | - | - |
| 1777996377 | 13.89° C | - | - | 0 mm | 2.24 m/s, 229° | - | - |
| 1777996079 | 13.89° C | - | - | 0 mm | 2.68 m/s, 224° | - | - |
| 1777995179 | 13.89° C | - | - | 0 mm | 4.02 m/s, 210° | - | - |
| 1777994881 | 14.44° C | - | - | 0 mm | 4.92 m/s, 236° | - | - |
| 1777994582 | 14.44° C | - | - | 0 mm | 4.47 m/s, 207° | - | - |
* Rain latest hour (hover to see other rain measurements)
** Current wind speed in m/s (hover to see current wind gust speed)